Valenca do Piaui, Brazil
Current Conditions -  °F | °C
As of 12:00 AM on Saturday 22 Nov 2014 (Local Time) from SBTE Reporting Station
Clear Clear  
Wind Chill: 82°   Ceiling: Unl
Heat Index: 86°   Visibility: 6mi
Dew Point: 70°   Wind: 8mph
Humidity: 66%   Direction: 20°NNE
Pressure: 29.83"   Gusts: NA
Location:  6.41°S, 41.75°W
Report Text: SBTE 220300Z 02007KT CAVOK 28/21 Q1010
Loading
Personal Weather Stations






























Interactive Weather Map New forecast layout! Learn more

10-Day Weather Forecast

Advertisements
Track Severe Weather on mobile